sensor_id;sensor_type;location;lat;lon;timestamp;temperature;humidity
7234;DHT22;3658;47.992;10.158;2024-03-23T00:53:42;21.00;43.40
7234;DHT22;3658;47.992;10.158;2024-03-23T00:56:09;21.00;43.30
7234;DHT22;3658;47.992;10.158;2024-03-23T00:58:34;21.00;43.30
7234;DHT22;3658;47.992;10.158;2024-03-23T01:01:01;21.00;43.30
7234;DHT22;3658;47.992;10.158;2024-03-23T01:03:29;21.00;43.30
7234;DHT22;3658;47.992;10.158;2024-03-23T01:05:59;21.00;43.20
7234;DHT22;3658;47.992;10.158;2024-03-23T01:08:25;21.00;43.20
7234;DHT22;3658;47.992;10.158;2024-03-23T01:10:57;20.90;43.20
7234;DHT22;3658;47.992;10.158;2024-03-23T01:13:23;21.00;43.20
7234;DHT22;3658;47.992;10.158;2024-03-23T01:15:50;21.00;43.20
7234;DHT22;3658;47.992;10.158;2024-03-23T01:18:17;21.00;43.20
7234;DHT22;3658;47.992;10.158;2024-03-23T01:20:44;21.00;43.20
7234;DHT22;3658;47.992;10.158;2024-03-23T01:23:10;21.00;43.20
7234;DHT22;3658;47.992;10.158;2024-03-23T01:25:37;21.00;43.20
7234;DHT22;3658;47.992;10.158;2024-03-23T01:28:05;21.00;43.20
7234;DHT22;3658;47.992;10.158;2024-03-23T01:30:32;21.00;43.10
7234;DHT22;3658;47.992;10.158;2024-03-23T01:32:57;21.00;43.20
7234;DHT22;3658;47.992;10.158;2024-03-23T01:35:24;20.90;43.00
7234;DHT22;3658;47.992;10.158;2024-03-23T01:37:50;20.90;43.00
7234;DHT22;3658;47.992;10.158;2024-03-23T01:40:17;20.90;43.00
7234;DHT22;3658;47.992;10.158;2024-03-23T01:42:44;20.90;43.00
7234;DHT22;3658;47.992;10.158;2024-03-23T01:45:22;20.90;43.60
7234;DHT22;3658;47.992;10.158;2024-03-23T01:47:49;20.90;43.00
7234;DHT22;3658;47.992;10.158;2024-03-23T01:50:16;20.90;42.90
7234;DHT22;3658;47.992;10.158;2024-03-23T01:52:42;20.90;42.90
7234;DHT22;3658;47.992;10.158;2024-03-23T01:55:09;20.90;43.00
7234;DHT22;3658;47.992;10.158;2024-03-23T01:57:35;20.90;42.90
7234;DHT22;3658;47.992;10.158;2024-03-23T02:00:02;20.90;42.90
7234;DHT22;3658;47.992;10.158;2024-03-23T02:02:30;20.90;42.90
7234;DHT22;3658;47.992;10.158;2024-03-23T02:04:57;20.90;42.90
7234;DHT22;3658;47.992;10.158;2024-03-23T02:07:22;20.90;42.90
7234;DHT22;3658;47.992;10.158;2024-03-23T02:09:50;20.90;42.90
7234;DHT22;3658;47.992;10.158;2024-03-23T02:12:17;20.90;42.90
7234;DHT22;3658;47.992;10.158;2024-03-23T02:14:44;20.90;42.90
7234;DHT22;3658;47.992;10.158;2024-03-23T02:17:10;20.90;42.90
7234;DHT22;3658;47.992;10.158;2024-03-23T02:19:38;20.90;42.80
7234;DHT22;3658;47.992;10.158;2024-03-23T02:22:04;20.90;42.80
7234;DHT22;3658;47.992;10.158;2024-03-23T02:24:32;20.90;42.90
7234;DHT22;3658;47.992;10.158;2024-03-23T02:26:59;20.90;42.90
7234;DHT22;3658;47.992;10.158;2024-03-23T02:29:26;20.90;42.90
7234;DHT22;3658;47.992;10.158;2024-03-23T02:31:52;20.90;42.90
7234;DHT22;3658;47.992;10.158;2024-03-23T02:34:18;20.90;42.80
7234;DHT22;3658;47.992;10.158;2024-03-23T02:36:44;20.90;42.80
7234;DHT22;3658;47.992;10.158;2024-03-23T02:39:11;20.90;42.80
7234;DHT22;3658;47.992;10.158;2024-03-23T02:41:38;20.90;42.80
7234;DHT22;3658;47.992;10.158;2024-03-23T02:44:05;20.90;42.80
7234;DHT22;3658;47.992;10.158;2024-03-23T02:46:31;20.90;42.80
7234;DHT22;3658;47.992;10.158;2024-03-23T02:48:58;20.90;42.80
7234;DHT22;3658;47.992;10.158;2024-03-23T02:51:23;20.90;42.80
7234;DHT22;3658;47.992;10.158;2024-03-23T02:53:50;20.90;42.80
7234;DHT22;3658;47.992;10.158;2024-03-23T02:56:16;20.90;42.80
7234;DHT22;3658;47.992;10.158;2024-03-23T02:58:44;20.90;42.80
7234;DHT22;3658;47.992;10.158;2024-03-23T03:01:10;20.90;42.80
7234;DHT22;3658;47.992;10.158;2024-03-23T03:03:37;20.90;42.80
7234;DHT22;3658;47.992;10.158;2024-03-23T03:06:03;20.90;42.70
7234;DHT22;3658;47.992;10.158;2024-03-23T03:08:30;20.90;42.70
7234;DHT22;3658;47.992;10.158;2024-03-23T03:10:56;20.90;42.70
7234;DHT22;3658;47.992;10.158;2024-03-23T03:13:22;20.90;42.70
7234;DHT22;3658;47.992;10.158;2024-03-23T03:15:49;20.90;42.70
7234;DHT22;3658;47.992;10.158;2024-03-23T03:18:16;20.90;42.70
7234;DHT22;3658;47.992;10.158;2024-03-23T03:20:42;20.90;42.70
7234;DHT22;3658;47.992;10.158;2024-03-23T03:23:09;20.90;42.70
7234;DHT22;3658;47.992;10.158;2024-03-23T03:25:35;20.90;42.70
7234;DHT22;3658;47.992;10.158;2024-03-23T03:28:03;20.90;42.70
7234;DHT22;3658;47.992;10.158;2024-03-23T03:30:29;20.80;42.60
7234;DHT22;3658;47.992;10.158;2024-03-23T03:32:57;20.80;42.60
7234;DHT22;3658;47.992;10.158;2024-03-23T03:35:23;20.90;42.70
7234;DHT22;3658;47.992;10.158;2024-03-23T03:37:50;20.80;42.60
7234;DHT22;3658;47.992;10.158;2024-03-23T03:40:16;20.80;42.60
7234;DHT22;3658;47.992;10.158;2024-03-23T03:42:43;20.80;42.60
7234;DHT22;3658;47.992;10.158;2024-03-23T03:45:08;20.80;42.60
7234;DHT22;3658;47.992;10.158;2024-03-23T03:47:35;20.80;42.60
7234;DHT22;3658;47.992;10.158;2024-03-23T03:50:02;20.80;42.50
7234;DHT22;3658;47.992;10.158;2024-03-23T03:52:29;20.90;42.70
7234;DHT22;3658;47.992;10.158;2024-03-23T03:55:01;20.80;42.50
7234;DHT22;3658;47.992;10.158;2024-03-23T03:57:29;20.80;42.60
7234;DHT22;3658;47.992;10.158;2024-03-23T03:59:54;20.80;42.50
7234;DHT22;3658;47.992;10.158;2024-03-23T04:02:21;20.80;42.60
7234;DHT22;3658;47.992;10.158;2024-03-23T04:04:47;20.80;42.50
7234;DHT22;3658;47.992;10.158;2024-03-23T04:07:15;20.90;43.30
7234;DHT22;3658;47.992;10.158;2024-03-23T04:09:43;20.80;42.50
7234;DHT22;3658;47.992;10.158;2024-03-23T04:12:10;20.80;42.60
7234;DHT22;3658;47.992;10.158;2024-03-23T04:14:35;20.80;42.60
7234;DHT22;3658;47.992;10.158;2024-03-23T04:17:02;20.80;42.60
7234;DHT22;3658;47.992;10.158;2024-03-23T04:19:28;20.80;42.60
7234;DHT22;3658;47.992;10.158;2024-03-23T04:21:55;20.80;42.50
7234;DHT22;3658;47.992;10.158;2024-03-23T04:24:22;20.80;42.50
7234;DHT22;3658;47.992;10.158;2024-03-23T04:26:50;20.90;42.60
7234;DHT22;3658;47.992;10.158;2024-03-23T04:29:16;20.80;42.50
7234;DHT22;3658;47.992;10.158;2024-03-23T04:31:42;20.80;42.40
7234;DHT22;3658;47.992;10.158;2024-03-23T04:34:08;20.80;42.50
7234;DHT22;3658;47.992;10.158;2024-03-23T04:36:35;20.80;42.50
7234;DHT22;3658;47.992;10.158;2024-03-23T04:39:01;20.80;42.50
7234;DHT22;3658;47.992;10.158;2024-03-23T04:41:29;20.80;42.50
7234;DHT22;3658;47.992;10.158;2024-03-23T04:43:56;20.80;42.50
7234;DHT22;3658;47.992;10.158;2024-03-23T04:46:23;20.80;42.40
7234;DHT22;3658;47.992;10.158;2024-03-23T04:48:50;20.80;42.40
7234;DHT22;3658;47.992;10.158;2024-03-23T04:51:23;20.80;42.40
7234;DHT22;3658;47.992;10.158;2024-03-23T04:53:50;20.80;42.50
7234;DHT22;3658;47.992;10.158;2024-03-23T04:56:17;20.80;42.40
7234;DHT22;3658;47.992;10.158;2024-03-23T04:58:45;20.80;42.40
7234;DHT22;3658;47.992;10.158;2024-03-23T05:01:11;20.80;42.40
7234;DHT22;3658;47.992;10.158;2024-03-23T05:03:39;20.80;42.40
7234;DHT22;3658;47.992;10.158;2024-03-23T05:06:05;20.80;42.40
7234;DHT22;3658;47.992;10.158;2024-03-23T05:08:32;20.80;42.40
7234;DHT22;3658;47.992;10.158;2024-03-23T05:10:57;20.80;42.40
7234;DHT22;3658;47.992;10.158;2024-03-23T05:13:24;20.80;42.40
7234;DHT22;3658;47.992;10.158;2024-03-23T05:15:53;20.80;42.40
7234;DHT22;3658;47.992;10.158;2024-03-23T05:18:20;20.80;42.50
7234;DHT22;3658;47.992;10.158;2024-03-23T05:20:45;20.80;42.40
7234;DHT22;3658;47.992;10.158;2024-03-23T05:23:12;20.80;42.50
7234;DHT22;3658;47.992;10.158;2024-03-23T05:25:38;20.80;42.60
7234;DHT22;3658;47.992;10.158;2024-03-23T05:28:05;20.80;42.50
7234;DHT22;3658;47.992;10.158;2024-03-23T05:30:32;20.80;42.50
7234;DHT22;3658;47.992;10.158;2024-03-23T05:33:00;20.90;43.20
7234;DHT22;3658;47.992;10.158;2024-03-23T05:35:26;20.90;42.90
7234;DHT22;3658;47.992;10.158;2024-03-23T05:37:53;20.90;42.90
7234;DHT22;3658;47.992;10.158;2024-03-23T05:40:19;20.90;42.90
7234;DHT22;3658;47.992;10.158;2024-03-23T05:42:45;20.90;43.10
7234;DHT22;3658;47.992;10.158;2024-03-23T05:45:11;20.90;43.10
7234;DHT22;3658;47.992;10.158;2024-03-23T05:47:38;20.90;43.50
7234;DHT22;3658;47.992;10.158;2024-03-23T05:50:06;20.90;43.40
7234;DHT22;3658;47.992;10.158;2024-03-23T05:52:35;20.90;43.90
7234;DHT22;3658;47.992;10.158;2024-03-23T05:55:01;20.90;43.60
7234;DHT22;3658;47.992;10.158;2024-03-23T05:57:28;20.80;43.20
7234;DHT22;3658;47.992;10.158;2024-03-23T05:59:54;20.80;43.10
7234;DHT22;3658;47.992;10.158;2024-03-23T06:02:20;20.80;43.10
7234;DHT22;3658;47.992;10.158;2024-03-23T06:04:46;20.80;43.10
7234;DHT22;3658;47.992;10.158;2024-03-23T06:07:14;20.80;43.10
7234;DHT22;3658;47.992;10.158;2024-03-23T06:09:40;20.80;43.00
7234;DHT22;3658;47.992;10.158;2024-03-23T06:12:08;20.80;43.00
7234;DHT22;3658;47.992;10.158;2024-03-23T06:14:34;20.80;43.00
7234;DHT22;3658;47.992;10.158;2024-03-23T06:17:01;20.80;43.00
7234;DHT22;3658;47.992;10.158;2024-03-23T06:19:27;20.80;43.00
7234;DHT22;3658;47.992;10.158;2024-03-23T06:21:54;20.80;43.00
7234;DHT22;3658;47.992;10.158;2024-03-23T06:24:22;20.80;43.00
7234;DHT22;3658;47.992;10.158;2024-03-23T06:26:49;20.80;43.00
7234;DHT22;3658;47.992;10.158;2024-03-23T06:29:15;20.80;43.00
7234;DHT22;3658;47.992;10.158;2024-03-23T06:31:42;20.80;43.00
7234;DHT22;3658;47.992;10.158;2024-03-23T06:34:08;20.80;43.00
7234;DHT22;3658;47.992;10.158;2024-03-23T06:36:35;20.80;43.00
7234;DHT22;3658;47.992;10.158;2024-03-23T06:39:02;20.80;42.90
7234;DHT22;3658;47.992;10.158;2024-03-23T06:41:30;20.80;42.90
7234;DHT22;3658;47.992;10.158;2024-03-23T06:43:55;20.80;42.90
7234;DHT22;3658;47.992;10.158;2024-03-23T06:46:22;20.70;42.90
7234;DHT22;3658;47.992;10.158;2024-03-23T06:48:48;20.80;42.90
7234;DHT22;3658;47.992;10.158;2024-03-23T06:51:15;20.70;42.90
7234;DHT22;3658;47.992;10.158;2024-03-23T06:53:40;20.80;42.90
7234;DHT22;3658;47.992;10.158;2024-03-23T06:56:07;20.70;42.90
7234;DHT22;3658;47.992;10.158;2024-03-23T06:58:34;20.70;42.90
7234;DHT22;3658;47.992;10.158;2024-03-23T07:01:01;20.70;42.90
7234;DHT22;3658;47.992;10.158;2024-03-23T07:03:27;20.80;42.90
7234;DHT22;3658;47.992;10.158;2024-03-23T07:05:57;20.70;42.90
7234;DHT22;3658;47.992;10.158;2024-03-23T07:08:23;20.70;42.90
7234;DHT22;3658;47.992;10.158;2024-03-23T07:10:50;20.70;42.90
7234;DHT22;3658;47.992;10.158;2024-03-23T07:13:16;20.70;42.90
7234;DHT22;3658;47.992;10.158;2024-03-23T07:15:51;20.80;42.90
7234;DHT22;3658;47.992;10.158;2024-03-23T07:18:17;20.70;42.90
7234;DHT22;3658;47.992;10.158;2024-03-23T07:20:52;20.70;42.90
7234;DHT22;3658;47.992;10.158;2024-03-23T07:23:18;20.70;42.90
7234;DHT22;3658;47.992;10.158;2024-03-23T07:25:44;20.70;42.90
7234;DHT22;3658;47.992;10.158;2024-03-23T07:28:10;20.70;42.90
7234;DHT22;3658;47.992;10.158;2024-03-23T07:30:37;20.70;42.90
7234;DHT22;3658;47.992;10.158;2024-03-23T07:33:04;20.70;42.90
7234;DHT22;3658;47.992;10.158;2024-03-23T07:35:32;20.70;42.90
7234;DHT22;3658;47.992;10.158;2024-03-23T07:37:57;20.70;42.90
7234;DHT22;3658;47.992;10.158;2024-03-23T07:40:30;20.70;42.90
7234;DHT22;3658;47.992;10.158;2024-03-23T07:42:56;20.70;42.90
7234;DHT22;3658;47.992;10.158;2024-03-23T07:45:23;20.70;42.90
7234;DHT22;3658;47.992;10.158;2024-03-23T07:47:49;20.70;42.90
7234;DHT22;3658;47.992;10.158;2024-03-23T07:50:17;20.70;42.90
7234;DHT22;3658;47.992;10.158;2024-03-23T07:52:42;20.70;42.90
7234;DHT22;3658;47.992;10.158;2024-03-23T07:55:09;20.70;42.90
7234;DHT22;3658;47.992;10.158;2024-03-23T07:57:35;20.70;42.90
7234;DHT22;3658;47.992;10.158;2024-03-23T08:00:02;20.70;43.00
7234;DHT22;3658;47.992;10.158;2024-03-23T08:02:28;20.70;43.00
7234;DHT22;3658;47.992;10.158;2024-03-23T08:04:55;20.70;43.00
7234;DHT22;3658;47.992;10.158;2024-03-23T08:07:22;20.70;42.90
7234;DHT22;3658;47.992;10.158;2024-03-23T08:09:49;20.70;42.90
7234;DHT22;3658;47.992;10.158;2024-03-23T08:12:14;20.70;43.00
7234;DHT22;3658;47.992;10.158;2024-03-23T08:14:41;20.70;43.00
7234;DHT22;3658;47.992;10.158;2024-03-23T08:17:07;20.70;43.00
7234;DHT22;3658;47.992;10.158;2024-03-23T08:19:34;20.70;43.00
7234;DHT22;3658;47.992;10.158;2024-03-23T08:22:00;20.60;42.90
7234;DHT22;3658;47.992;10.158;2024-03-23T08:24:29;20.70;43.00
7234;DHT22;3658;47.992;10.158;2024-03-23T08:26:55;20.70;43.00
7234;DHT22;3658;47.992;10.158;2024-03-23T08:29:22;20.70;43.00
7234;DHT22;3658;47.992;10.158;2024-03-23T08:31:48;20.60;42.90
7234;DHT22;3658;47.992;10.158;2024-03-23T08:34:15;20.60;42.90
7234;DHT22;3658;47.992;10.158;2024-03-23T08:36:40;20.60;42.90
7234;DHT22;3658;47.992;10.158;2024-03-23T08:39:07;20.60;42.90
7234;DHT22;3658;47.992;10.158;2024-03-23T08:41:34;20.60;42.90
7234;DHT22;3658;47.992;10.158;2024-03-23T08:44:01;20.70;43.00
7234;DHT22;3658;47.992;10.158;2024-03-23T08:46:27;20.70;43.00
7234;DHT22;3658;47.992;10.158;2024-03-23T08:48:54;20.70;43.00
7234;DHT22;3658;47.992;10.158;2024-03-23T08:51:19;20.70;43.00
7234;DHT22;3658;47.992;10.158;2024-03-23T08:53:46;20.60;42.90
7234;DHT22;3658;47.992;10.158;2024-03-23T08:56:12;20.60;42.90
7234;DHT22;3658;47.992;10.158;2024-03-23T08:58:40;20.60;42.90
7234;DHT22;3658;47.992;10.158;2024-03-23T09:01:07;20.60;42.90
7234;DHT22;3658;47.992;10.158;2024-03-23T09:03:35;20.60;43.10
7234;DHT22;3658;47.992;10.158;2024-03-23T09:06:01;20.60;42.90
7234;DHT22;3658;47.992;10.158;2024-03-23T09:08:28;20.60;42.90
7234;DHT22;3658;47.992;10.158;2024-03-23T09:10:54;20.60;42.90
7234;DHT22;3658;47.992;10.158;2024-03-23T09:13:21;20.60;42.90
7234;DHT22;3658;47.992;10.158;2024-03-23T09:15:49;20.60;42.90
7234;DHT22;3658;47.992;10.158;2024-03-23T09:18:16;20.60;42.90
7234;DHT22;3658;47.992;10.158;2024-03-23T09:20:43;20.60;42.90
7234;DHT22;3658;47.992;10.158;2024-03-23T09:23:09;20.60;42.90
7234;DHT22;3658;47.992;10.158;2024-03-23T09:25:37;20.60;42.90
7234;DHT22;3658;47.992;10.158;2024-03-23T09:28:03;20.60;42.90
7234;DHT22;3658;47.992;10.158;2024-03-23T09:30:31;20.60;42.90
7234;DHT22;3658;47.992;10.158;2024-03-23T09:32:58;20.60;42.90
7234;DHT22;3658;47.992;10.158;2024-03-23T09:35:25;20.60;42.90
7234;DHT22;3658;47.992;10.158;2024-03-23T09:37:51;20.60;42.90
7234;DHT22;3658;47.992;10.158;2024-03-23T09:40:18;20.60;42.90
7234;DHT22;3658;47.992;10.158;2024-03-23T09:42:49;20.60;42.90
7234;DHT22;3658;47.992;10.158;2024-03-23T09:45:19;20.60;42.90
7234;DHT22;3658;47.992;10.158;2024-03-23T09:47:45;20.60;42.90
7234;DHT22;3658;47.992;10.158;2024-03-23T09:50:14;20.60;42.90
7234;DHT22;3658;47.992;10.158;2024-03-23T09:52:40;20.60;42.80
7234;DHT22;3658;47.992;10.158;2024-03-23T09:55:08;20.60;42.90
7234;DHT22;3658;47.992;10.158;2024-03-23T09:57:34;20.60;42.90
7234;DHT22;3658;47.992;10.158;2024-03-23T10:00:01;20.60;42.90
7234;DHT22;3658;47.992;10.158;2024-03-23T10:02:27;20.60;42.90
7234;DHT22;3658;47.992;10.158;2024-03-23T10:04:54;20.60;42.90
7234;DHT22;3658;47.992;10.158;2024-03-23T10:07:21;20.60;42.80
7234;DHT22;3658;47.992;10.158;2024-03-23T10:09:48;20.60;42.90
7234;DHT22;3658;47.992;10.158;2024-03-23T10:12:18;20.60;42.80
7234;DHT22;3658;47.992;10.158;2024-03-23T10:14:45;20.60;42.90
7234;DHT22;3658;47.992;10.158;2024-03-23T10:17:15;20.60;42.80
7234;DHT22;3658;47.992;10.158;2024-03-23T10:19:44;20.60;42.80
7234;DHT22;3658;47.992;10.158;2024-03-23T10:22:13;20.60;42.80
7234;DHT22;3658;47.992;10.158;2024-03-23T10:24:41;20.60;42.80
7234;DHT22;3658;47.992;10.158;2024-03-23T10:27:07;20.60;42.80
7234;DHT22;3658;47.992;10.158;2024-03-23T10:29:33;20.60;42.80
7234;DHT22;3658;47.992;10.158;2024-03-23T10:32:09;20.60;42.80
7234;DHT22;3658;47.992;10.158;2024-03-23T10:34:36;20.60;42.80
7234;DHT22;3658;47.992;10.158;2024-03-23T10:37:03;20.60;42.70
7234;DHT22;3658;47.992;10.158;2024-03-23T10:39:34;20.60;42.70
7234;DHT22;3658;47.992;10.158;2024-03-23T10:42:07;20.60;42.70
7234;DHT22;3658;47.992;10.158;2024-03-23T10:44:33;20.60;42.70
7234;DHT22;3658;47.992;10.158;2024-03-23T10:47:01;20.60;42.70
7234;DHT22;3658;47.992;10.158;2024-03-23T10:49:28;20.60;42.70
7234;DHT22;3658;47.992;10.158;2024-03-23T10:51:57;20.60;42.70
7234;DHT22;3658;47.992;10.158;2024-03-23T10:54:24;20.60;42.70
7234;DHT22;3658;47.992;10.158;2024-03-23T10:56:53;20.60;42.70
7234;DHT22;3658;47.992;10.158;2024-03-23T10:59:23;20.60;42.70
7234;DHT22;3658;47.992;10.158;2024-03-23T11:01:55;20.60;42.70
7234;DHT22;3658;47.992;10.158;2024-03-23T11:04:31;20.60;42.70
7234;DHT22;3658;47.992;10.158;2024-03-23T11:06:58;20.60;42.70
7234;DHT22;3658;47.992;10.158;2024-03-23T11:09:45;20.60;42.70
7234;DHT22;3658;47.992;10.158;2024-03-23T11:12:25;20.50;42.70
7234;DHT22;3658;47.992;10.158;2024-03-23T11:14:54;20.50;42.60
7234;DHT22;3658;47.992;10.158;2024-03-23T11:17:21;20.50;42.60
7234;DHT22;3658;47.992;10.158;2024-03-23T11:19:53;20.60;42.70
7234;DHT22;3658;47.992;10.158;2024-03-23T11:22:41;20.50;42.60
7234;DHT22;3658;47.992;10.158;2024-03-23T11:25:18;20.50;42.60
7234;DHT22;3658;47.992;10.158;2024-03-23T11:27:46;20.50;42.60
7234;DHT22;3658;47.992;10.158;2024-03-23T11:30:18;20.50;42.60
7234;DHT22;3658;47.992;10.158;2024-03-23T11:32:46;20.60;42.70
7234;DHT22;3658;47.992;10.158;2024-03-23T11:35:25;20.50;42.50
7234;DHT22;3658;47.992;10.158;2024-03-23T11:38:05;20.60;42.60
7234;DHT22;3658;47.992;10.158;2024-03-23T11:40:33;20.50;42.60
7234;DHT22;3658;47.992;10.158;2024-03-23T11:43:00;20.50;42.50
7234;DHT22;3658;47.992;10.158;2024-03-23T11:45:29;20.50;43.20
7234;DHT22;3658;47.992;10.158;2024-03-23T11:48:08;20.50;42.50
7234;DHT22;3658;47.992;10.158;2024-03-23T11:50:37;20.50;42.50
7234;DHT22;3658;47.992;10.158;2024-03-23T11:53:13;20.60;42.60
7234;DHT22;3658;47.992;10.158;2024-03-23T11:55:42;20.50;42.50
7234;DHT22;3658;47.992;10.158;2024-03-23T11:58:08;20.60;42.60
7234;DHT22;3658;47.992;10.158;2024-03-23T12:00:36;20.60;42.60
7234;DHT22;3658;47.992;10.158;2024-03-23T12:03:03;20.60;42.60
7234;DHT22;3658;47.992;10.158;2024-03-23T12:05:31;20.50;42.50
7234;DHT22;3658;47.992;10.158;2024-03-23T12:08:21;20.50;42.60
7234;DHT22;3658;47.992;10.158;2024-03-23T12:10:49;20.60;42.60
7234;DHT22;3658;47.992;10.158;2024-03-23T12:13:17;20.60;42.60
7234;DHT22;3658;47.992;10.158;2024-03-23T12:15:46;20.50;42.60
7234;DHT22;3658;47.992;10.158;2024-03-23T12:18:12;20.50;42.50
7234;DHT22;3658;47.992;10.158;2024-03-23T12:20:39;20.50;42.50
7234;DHT22;3658;47.992;10.158;2024-03-23T12:23:09;20.50;42.50
7234;DHT22;3658;47.992;10.158;2024-03-23T12:25:37;20.50;42.60
7234;DHT22;3658;47.992;10.158;2024-03-23T12:28:04;20.50;42.60
7234;DHT22;3658;47.992;10.158;2024-03-23T12:30:32;20.50;42.50
7234;DHT22;3658;47.992;10.158;2024-03-23T12:32:59;20.50;42.50
7234;DHT22;3658;47.992;10.158;2024-03-23T12:35:26;20.50;42.50
7234;DHT22;3658;47.992;10.158;2024-03-23T12:37:52;20.50;42.50
7234;DHT22;3658;47.992;10.158;2024-03-23T12:40:18;20.50;42.50
7234;DHT22;3658;47.992;10.158;2024-03-23T12:42:44;20.50;42.50
7234;DHT22;3658;47.992;10.158;2024-03-23T12:45:11;20.50;42.50
7234;DHT22;3658;47.992;10.158;2024-03-23T12:47:37;20.50;42.50
7234;DHT22;3658;47.992;10.158;2024-03-23T12:50:06;20.50;42.50
7234;DHT22;3658;47.992;10.158;2024-03-23T12:52:32;20.50;42.50
7234;DHT22;3658;47.992;10.158;2024-03-23T12:54:59;20.50;42.50
7234;DHT22;3658;47.992;10.158;2024-03-23T12:57:25;20.50;42.50
7234;DHT22;3658;47.992;10.158;2024-03-23T12:59:52;20.50;42.50
7234;DHT22;3658;47.992;10.158;2024-03-23T13:02:19;20.50;42.50
7234;DHT22;3658;47.992;10.158;2024-03-23T13:04:46;20.50;42.50
7234;DHT22;3658;47.992;10.158;2024-03-23T13:07:16;20.50;42.50
7234;DHT22;3658;47.992;10.158;2024-03-23T13:09:43;20.50;42.50
7234;DHT22;3658;47.992;10.158;2024-03-23T13:12:10;20.50;42.50
7234;DHT22;3658;47.992;10.158;2024-03-23T13:14:37;20.50;42.50
7234;DHT22;3658;47.992;10.158;2024-03-23T13:17:04;20.50;42.50
7234;DHT22;3658;47.992;10.158;2024-03-23T13:19:30;20.50;42.50
7234;DHT22;3658;47.992;10.158;2024-03-23T13:21:57;20.50;42.50
7234;DHT22;3658;47.992;10.158;2024-03-23T13:24:25;20.50;42.50
7234;DHT22;3658;47.992;10.158;2024-03-23T13:26:52;20.40;42.40
7234;DHT22;3658;47.992;10.158;2024-03-23T13:29:19;20.50;42.50
7234;DHT22;3658;47.992;10.158;2024-03-23T13:31:46;21.10;43.00
7234;DHT22;3658;47.992;10.158;2024-03-23T13:34:12;20.40;42.40
7234;DHT22;3658;47.992;10.158;2024-03-23T13:36:40;20.50;42.50
7234;DHT22;3658;47.992;10.158;2024-03-23T13:39:06;20.40;42.40
7234;DHT22;3658;47.992;10.158;2024-03-23T13:41:38;20.50;42.40
7234;DHT22;3658;47.992;10.158;2024-03-23T13:44:04;20.40;42.40
7234;DHT22;3658;47.992;10.158;2024-03-23T13:46:31;20.40;42.30
7234;DHT22;3658;47.992;10.158;2024-03-23T13:48:57;20.40;42.30
7234;DHT22;3658;47.992;10.158;2024-03-23T13:51:24;20.40;42.40
7234;DHT22;3658;47.992;10.158;2024-03-23T13:53:51;20.40;42.30
7234;DHT22;3658;47.992;10.158;2024-03-23T13:56:17;20.40;42.30
7234;DHT22;3658;47.992;10.158;2024-03-23T13:58:45;20.40;42.30
7234;DHT22;3658;47.992;10.158;2024-03-23T14:01:13;20.40;42.30
7234;DHT22;3658;47.992;10.158;2024-03-23T14:03:39;20.40;42.30
7234;DHT22;3658;47.992;10.158;2024-03-23T14:06:06;20.40;42.30
7234;DHT22;3658;47.992;10.158;2024-03-23T14:08:33;20.40;42.30
7234;DHT22;3658;47.992;10.158;2024-03-23T14:11:02;20.40;42.20
7234;DHT22;3658;47.992;10.158;2024-03-23T14:13:29;20.40;42.20
7234;DHT22;3658;47.992;10.158;2024-03-23T14:15:58;20.50;42.40
7234;DHT22;3658;47.992;10.158;2024-03-23T14:18:24;20.40;42.30
7234;DHT22;3658;47.992;10.158;2024-03-23T14:20:51;20.40;42.90
7234;DHT22;3658;47.992;10.158;2024-03-23T14:23:17;20.40;42.30
7234;DHT22;3658;47.992;10.158;2024-03-23T14:25:45;20.40;42.30
7234;DHT22;3658;47.992;10.158;2024-03-23T14:28:10;20.40;42.20
7234;DHT22;3658;47.992;10.158;2024-03-23T14:30:41;20.40;42.30
7234;DHT22;3658;47.992;10.158;2024-03-23T14:33:08;20.40;42.30
7234;DHT22;3658;47.992;10.158;2024-03-23T14:35:35;20.40;42.30
7234;DHT22;3658;47.992;10.158;2024-03-23T14:38:01;20.40;42.30
7234;DHT22;3658;47.992;10.158;2024-03-23T14:40:28;20.40;42.30
7234;DHT22;3658;47.992;10.158;2024-03-23T14:42:54;20.40;42.30
7234;DHT22;3658;47.992;10.158;2024-03-23T14:45:21;20.40;42.30
7234;DHT22;3658;47.992;10.158;2024-03-23T14:47:49;20.40;42.30
7234;DHT22;3658;47.992;10.158;2024-03-23T14:50:17;20.40;42.30
7234;DHT22;3658;47.992;10.158;2024-03-23T14:52:44;20.40;42.20
7234;DHT22;3658;47.992;10.158;2024-03-23T14:55:11;20.40;42.30
7234;DHT22;3658;47.992;10.158;2024-03-23T14:57:37;20.40;42.20
7234;DHT22;3658;47.992;10.158;2024-03-23T15:00:07;20.40;42.30
7234;DHT22;3658;47.992;10.158;2024-03-23T15:02:33;20.40;42.30
7234;DHT22;3658;47.992;10.158;2024-03-23T15:05:00;20.40;42.30
7234;DHT22;3658;47.992;10.158;2024-03-23T15:07:27;20.40;42.30
7234;DHT22;3658;47.992;10.158;2024-03-23T15:09:54;20.40;42.30
7234;DHT22;3658;47.992;10.158;2024-03-23T15:12:20;20.40;42.30
7234;DHT22;3658;47.992;10.158;2024-03-23T15:14:47;20.40;42.30
7234;DHT22;3658;47.992;10.158;2024-03-23T15:17:13;20.40;42.30
7234;DHT22;3658;47.992;10.158;2024-03-23T15:19:40;20.40;42.30
7234;DHT22;3658;47.992;10.158;2024-03-23T15:22:07;20.40;42.30
7234;DHT22;3658;47.992;10.158;2024-03-23T15:24:36;20.40;42.30
7234;DHT22;3658;47.992;10.158;2024-03-23T15:27:02;20.30;42.20
7234;DHT22;3658;47.992;10.158;2024-03-23T15:29:29;20.30;42.30
7234;DHT22;3658;47.992;10.158;2024-03-23T15:31:55;20.30;42.20
7234;DHT22;3658;47.992;10.158;2024-03-23T15:34:22;20.30;42.30
7234;DHT22;3658;47.992;10.158;2024-03-23T15:36:48;20.30;42.30
7234;DHT22;3658;47.992;10.158;2024-03-23T15:39:16;20.30;42.30
7234;DHT22;3658;47.992;10.158;2024-03-23T15:41:44;20.30;42.20
7234;DHT22;3658;47.992;10.158;2024-03-23T15:44:10;20.30;42.20
7234;DHT22;3658;47.992;10.158;2024-03-23T15:46:36;20.30;42.30
7234;DHT22;3658;47.992;10.158;2024-03-23T15:49:03;20.30;42.20
7234;DHT22;3658;47.992;10.158;2024-03-23T15:51:30;20.30;42.20
7234;DHT22;3658;47.992;10.158;2024-03-23T15:53:59;20.30;42.20
7234;DHT22;3658;47.992;10.158;2024-03-23T15:56:25;20.30;42.20
7234;DHT22;3658;47.992;10.158;2024-03-23T15:58:53;20.30;42.20
7234;DHT22;3658;47.992;10.158;2024-03-23T16:01:19;20.30;42.30
7234;DHT22;3658;47.992;10.158;2024-03-23T16:03:46;20.30;42.30
7234;DHT22;3658;47.992;10.158;2024-03-23T16:06:12;20.30;42.20
7234;DHT22;3658;47.992;10.158;2024-03-23T16:08:38;20.30;42.30
7234;DHT22;3658;47.992;10.158;2024-03-23T16:11:05;20.30;42.30
7234;DHT22;3658;47.992;10.158;2024-03-23T16:13:32;20.30;42.30
7234;DHT22;3658;47.992;10.158;2024-03-23T16:16:01;20.30;42.30
7234;DHT22;3658;47.992;10.158;2024-03-23T16:18:30;20.30;42.20
7234;DHT22;3658;47.992;10.158;2024-03-23T16:20:57;20.30;42.20
7234;DHT22;3658;47.992;10.158;2024-03-23T16:23:25;20.30;42.20
7234;DHT22;3658;47.992;10.158;2024-03-23T16:25:51;20.30;42.30
7234;DHT22;3658;47.992;10.158;2024-03-23T16:28:25;20.30;42.30
7234;DHT22;3658;47.992;10.158;2024-03-23T16:31:00;20.20;42.20
7234;DHT22;3658;47.992;10.158;2024-03-23T16:33:28;20.20;42.20
7234;DHT22;3658;47.992;10.158;2024-03-23T16:35:58;20.20;42.20
7234;DHT22;3658;47.992;10.158;2024-03-23T16:38:25;20.20;42.20